Time;durP1;ratioP1;P1;durP2;ratioP2;P2;SDS_P1;SDS_P2;PMS_P1;PMS_P2;Temp;Humidity;BMP_temperature;BMP_pressure;BME280_temperature;BME280_humidity;BME280_pressure;Samples;Min_cycle;Max_cycle;Signal;HPM_P1;HPM_P2
2022/04/04 00:00:41;;;;;;;;;;;;;;;16.23;48.95;101814.63;6279546;22;19911;-77
2022/04/04 00:03:07;;;;;;;;;;;;;;;16.22;48.73;101811.16;6279363;22;19973;-76
2022/04/04 00:05:33;;;;;;;;;;;;;;;16.23;49.03;101810.28;6252289;22;19938;-77
2022/04/04 00:07:58;;;;;;;;;;;;;;;16.24;48.82;101811.16;6278156;22;19908;-78
2022/04/04 00:10:23;;;;;;;;;;;;;;;16.23;49.04;101801.63;6279000;22;19907;-77
2022/04/04 00:12:49;;;;;;;;;;;;;;;16.22;48.89;101798.16;6277463;22;19938;-77
2022/04/04 00:15:14;;;;;;;;;;;;;;;16.22;49.01;101792.97;6282072;22;19915;-77
2022/04/04 00:17:40;;;;;;;;;;;;;;;16.21;49.24;101786.03;6291721;22;19926;-83
2022/04/04 00:20:07;;;;;;;;;;;;;;;16.21;48.82;101791.22;6302276;22;19907;-83
2022/04/04 00:22:32;;;;;;;;;;;;;;;16.20;48.83;101776.50;6329579;22;19926;-84
2022/04/04 00:24:58;;;;;;;;;;;;;;;16.21;48.88;101786.03;6301957;22;19985;-83
2022/04/04 00:27:25;;;;;;;;;;;;;;;16.20;48.79;101776.50;6302038;22;19911;-85
2022/04/04 00:29:50;;;;;;;;;;;;;;;16.20;48.83;101762.63;6303298;22;19907;-84
2022/04/04 00:32:16;;;;;;;;;;;;;;;16.21;48.84;101765.25;6279412;22;19919;-84
2022/04/04 00:34:41;;;;;;;;;;;;;;;16.20;49.09;101754.84;6267972;22;19918;-77
2022/04/04 00:37:06;;;;;;;;;;;;;;;16.19;49.14;101748.78;6282387;22;19988;-77
2022/04/04 00:39:32;;;;;;;;;;;;;;;16.19;48.77;101751.38;6282535;22;19990;-77
2022/04/04 00:41:57;;;;;;;;;;;;;;;16.21;48.95;101741.88;6282984;22;19949;-77
2022/04/04 00:44:22;;;;;;;;;;;;;;;16.21;48.74;101741.88;6334506;22;19915;-83
2022/04/04 00:46:48;;;;;;;;;;;;;;;16.20;49.34;101731.47;6335858;22;19915;-82
2022/04/04 00:49:13;;;;;;;;;;;;;;;16.20;48.67;101727.16;6278393;22;19917;-83
2022/04/04 00:51:38;;;;;;;;;;;;;;;16.20;48.76;101726.25;6302983;22;19911;-83
2022/04/04 00:54:04;;;;;;;;;;;;;;;16.20;48.86;101718.47;6302570;22;19911;-83
2022/04/04 00:56:31;;;;;;;;;;;;;;;16.20;48.57;101710.69;6302800;22;19907;-83
2022/04/04 00:58:56;;;;;;;;;;;;;;;16.18;48.64;101705.50;6328804;22;19913;-85
2022/04/04 01:01:22;;;;;;;;;;;;;;;16.19;48.73;101702.03;6303625;22;19911;-84
2022/04/04 01:03:48;;;;;;;;;;;;;;;16.20;48.50;101698.59;6292838;22;19907;-77
2022/04/04 01:06:13;;;;;;;;;;;;;;;16.20;49.34;101697.69;6256538;22;19934;-77
2022/04/04 01:08:38;;;;;;;;;;;;;;;16.19;48.77;101690.78;6282124;22;19911;-77
2022/04/04 01:11:03;;;;;;;;;;;;;;;16.20;48.91;101684.72;6257046;22;19918;-80
2022/04/04 01:13:29;;;;;;;;;;;;;;;16.19;48.78;101670.00;6287629;22;19922;-77
2022/04/04 01:15:54;;;;;;;;;;;;;;;16.19;48.32;101667.41;6256332;22;20290;-77
2022/04/04 01:18:19;;;;;;;;;;;;;;;16.18;48.88;101663.94;6282443;22;19911;-77
2022/04/04 01:20:45;;;;;;;;;;;;;;;16.19;48.98;101657.88;6282530;22;19906;-77
2022/04/04 01:23:20;;;;;;;;;;;;;;;16.19;48.69;101655.28;6282236;22;20285;-77
2022/04/04 01:25:45;;;;;;;;;;;;;;;16.19;48.65;101657.88;6310151;22;19938;-77
2022/04/04 01:28:11;;;;;;;;;;;;;;;16.20;48.76;101650.97;6282282;22;19986;-77
2022/04/04 01:30:36;;;;;;;;;;;;;;;16.17;48.80;101646.63;6282050;22;19989;-77
2022/04/04 01:33:02;;;;;;;;;;;;;;;16.18;48.64;101632.78;6309648;22;19911;-77
2022/04/04 01:35:28;;;;;;;;;;;;;;;16.18;48.71;101630.19;6309869;22;20285;-77
2022/04/04 01:37:53;;;;;;;;;;;;;;;16.18;48.67;101624.13;6309912;22;19914;-77
2022/04/04 01:40:18;;;;;;;;;;;;;;;16.19;48.53;101620.66;6309340;22;19911;-77
2022/04/04 01:42:50;;;;;;;;;;;;;;;16.18;48.64;101609.41;6256942;22;20365;-76
2022/04/04 01:45:16;;;;;;;;;;;;;;;16.18;48.60;101606.81;6282030;22;19914;-77
2022/04/04 01:47:41;;;;;;;;;;;;;;;16.18;48.75;101606.81;6328236;22;19907;-84
2022/04/04 01:50:07;;;;;;;;;;;;;;;16.17;48.61;101610.25;6302017;22;19910;-84
2022/04/04 01:52:33;;;;;;;;;;;;;;;16.17;48.43;101602.47;6300416;22;19955;-77
2022/04/04 01:54:59;;;;;;;;;;;;;;;16.17;48.57;101594.69;6282216;22;19914;-77
2022/04/04 01:57:24;;;;;;;;;;;;;;;16.18;48.61;101582.59;6284556;22;20239;-77
2022/04/04 01:59:49;;;;;;;;;;;;;;;16.18;48.51;101586.03;6312070;22;19914;-77
2022/04/04 02:02:15;;;;;;;;;;;;;;;16.18;48.60;101572.19;6285808;22;20359;-77
2022/04/04 02:04:40;;;;;;;;;;;;;;;16.17;48.56;101567.84;6289179;22;19918;-78
2022/04/04 02:07:08;;;;;;;;;;;;;;;16.17;48.40;101560.91;6288138;22;19930;-77
2022/04/04 02:09:34;;;;;;;;;;;;;;;16.18;48.44;101554.03;6314211;22;19982;-77
2022/04/04 02:11:59;;;;;;;;;;;;;;;16.18;48.46;101546.22;6284131;22;19953;-77
2022/04/04 02:14:25;;;;;;;;;;;;;;;16.18;48.63;101554.03;6283322;22;19911;-77
2022/04/04 02:16:50;;;;;;;;;;;;;;;16.16;48.32;101538.41;6283272;22;20306;-77
2022/04/04 02:19:17;;;;;;;;;;;;;;;16.17;48.16;101536.69;6309958;22;19907;-77
2022/04/04 02:21:43;;;;;;;;;;;;;;;16.17;48.22;101521.97;6281801;22;19907;-77
2022/04/04 02:24:08;;;;;;;;;;;;;;;16.17;48.19;101523.69;6282634;22;20271;-77
2022/04/04 02:26:34;;;;;;;;;;;;;;;16.16;48.41;101520.25;6309884;22;19907;-77
2022/04/04 02:28:59;;;;;;;;;;;;;;;16.17;48.39;101502.94;6309500;22;19968;-78
2022/04/04 02:31:24;;;;;;;;;;;;;;;16.16;48.24;101509.84;6309137;22;19911;-77
2022/04/04 02:33:50;;;;;;;;;;;;;;;16.17;48.03;101510.72;6309430;22;19915;-77
2022/04/04 02:36:15;;;;;;;;;;;;;;;16.16;48.18;101491.69;6309102;22;19907;-77
2022/04/04 02:38:41;;;;;;;;;;;;;;;16.16;47.98;101483.88;6256110;22;19981;-77
2022/04/04 02:41:06;;;;;;;;;;;;;;;16.16;48.10;101470.91;6308783;22;19914;-78
2022/04/04 02:43:32;;;;;;;;;;;;;;;16.17;47.92;101469.16;6319081;22;19926;-83
2022/04/04 02:45:58;;;;;;;;;;;;;;;16.17;48.17;101466.56;6303744;22;19914;-83
2022/04/04 02:48:23;;;;;;;;;;;;;;;16.17;47.96;101461.38;6330193;22;19929;-83
2022/04/04 02:50:48;;;;;;;;;;;;;;;16.17;48.00;101454.44;6302429;22;19930;-83
2022/04/04 02:53:14;;;;;;;;;;;;;;;16.17;48.14;101445.81;6302389;22;19915;-84
2022/04/04 02:58:23;;;;;;;;;;;;;;;16.16;47.59;101434.56;6331416;22;19937;-83
2022/04/04 03:00:48;;;;;;;;;;;;;;;16.15;47.98;101427.59;6277234;22;19938;-84
2022/04/04 03:03:14;;;;;;;;;;;;;;;16.15;47.92;101424.16;6304053;22;19911;-84
2022/04/04 03:05:39;;;;;;;;;;;;;;;16.16;47.90;101416.38;6291965;22;19907;-77
2022/04/04 03:08:05;;;;;;;;;;;;;;;16.15;47.56;101406.84;6281482;22;19914;-77
2022/04/04 03:10:31;;;;;;;;;;;;;;;16.15;47.96;101401.63;6308601;22;20399;-78
2022/04/04 03:12:59;;;;;;;;;;;;;;;16.15;48.30;101388.66;6308760;22;19957;-77
2022/04/04 03:15:25;;;;;;;;;;;;;;;16.16;47.94;101394.75;6255996;22;19973;-77
2022/04/04 03:17:51;;;;;;;;;;;;;;;16.16;47.91;101394.75;6281323;22;20301;-78
2022/04/04 03:20:18;;;;;;;;;;;;;;;16.15;47.76;101385.19;6281525;22;19928;-77
2022/04/04 03:22:45;;;;;;;;;;;;;;;16.15;47.75;101382.59;6255909;22;19990;-77
2022/04/04 03:25:11;;;;;;;;;;;;;;;16.14;47.60;101379.16;6308882;22;19910;-77
2022/04/04 03:27:37;;;;;;;;;;;;;;;16.15;47.62;101374.81;6281627;22;19913;-77
2022/04/04 03:30:07;;;;;;;;;;;;;;;16.14;47.67;101366.16;6308664;22;19946;-77
2022/04/04 03:32:33;;;;;;;;;;;;;;;16.15;47.82;101362.69;6281176;22;19913;-77
2022/04/04 03:34:59;;;;;;;;;;;;;;;16.14;47.92;101350.59;6308815;22;19911;-77
2022/04/04 03:37:24;;;;;;;;;;;;;;;16.15;47.77;101352.31;6281168;22;19915;-77
2022/04/04 03:39:50;;;;;;;;;;;;;;;16.15;47.78;101344.50;6281321;22;19907;-77
2022/04/04 03:42:16;;;;;;;;;;;;;;;16.14;47.53;101345.41;6281652;22;20292;-77
2022/04/04 03:44:41;;;;;;;;;;;;;;;16.14;47.45;101332.41;6255814;22;19915;-78
2022/04/04 03:47:07;;;;;;;;;;;;;;;16.15;47.74;101331.53;6255991;22;19964;-77
2022/04/04 03:49:32;;;;;;;;;;;;;;;16.14;47.64;101319.44;6255769;22;20316;-77
2022/04/04 03:51:57;;;;;;;;;;;;;;;16.14;48.69;101329.81;6281436;22;19911;-77
2022/04/04 03:54:23;;;;;;;;;;;;;;;16.14;47.62;101322.03;6309656;22;19915;-77
2022/04/04 03:56:48;;;;;;;;;;;;;;;16.14;47.54;101300.41;6282723;22;20339;-77
2022/04/04 03:59:13;;;;;;;;;;;;;;;16.14;47.86;101301.25;6282646;22;19947;-77
2022/04/04 04:01:39;;;;;;;;;;;;;;;16.14;47.71;101303.00;6293572;22;19907;-83
2022/04/04 04:04:04;;;;;;;;;;;;;;;16.14;47.11;101292.59;6277378;22;19911;-82
2022/04/04 04:06:33;;;;;;;;;;;;;;;16.13;47.83;101291.72;6301889;22;19911;-83
2022/04/04 04:08:59;;;;;;;;;;;;;;;16.14;47.56;101282.22;6277611;22;19911;-83
2022/04/04 04:11:28;;;;;;;;;;;;;;;16.13;47.28;101270.09;6295981;22;20555;-77
2022/04/04 04:13:54;;;;;;;;;;;;;;;16.14;47.37;101272.69;6282538;22;19964;-77
2022/04/04 04:16:20;;;;;;;;;;;;;;;16.13;47.57;101262.28;6309884;22;19918;-77
2022/04/04 04:18:45;;;;;;;;;;;;;;;16.13;47.49;101257.97;6282824;22;19993;-77
2022/04/04 04:21:11;;;;;;;;;;;;;;;16.13;47.32;101265.75;6283198;22;19953;-77
2022/04/04 04:23:40;;;;;;;;;;;;;;;16.13;47.11;101250.16;6282863;22;20327;-77
2022/04/04 04:26:06;;;;;;;;;;;;;;;16.12;47.31;101248.44;6310430;22;19907;-79
2022/04/04 04:28:32;;;;;;;;;;;;;;;16.12;47.73;101238.06;6283657;22;19917;-80
2022/04/04 04:30:58;;;;;;;;;;;;;;;16.13;47.84;101244.13;6300966;22;19939;-79
2022/04/04 04:33:24;;;;;;;;;;;;;;;16.13;47.54;101233.72;6294208;22;19926;-79
2022/04/04 04:38:53;;;;;;;;;;;;;;;16.13;47.39;101215.56;6321759;22;19913;-82
2022/04/04 04:41:22;;;;;;;;;;;;;;;16.14;47.23;101204.31;6298531;22;19907;-82
2022/04/04 04:43:47;;;;;;;;;;;;;;;16.14;47.05;101196.53;6301394;22;19913;-83
2022/04/04 04:49:45;;;;;;;;;;;;;;;16.14;47.11;101187.00;6332790;22;19897;-83
2022/04/04 04:52:17;;;;;;;;;;;;;;;16.13;47.22;101172.28;6256078;22;19951;-83
2022/04/04 04:54:43;;;;;;;;;;;;;;;16.13;47.05;101161.91;6277589;22;19938;-79
2022/04/04 04:57:08;;;;;;;;;;;;;;;16.13;47.37;101167.09;6309972;22;19907;-78
2022/04/04 04:59:34;;;;;;;;;;;;;;;16.12;47.36;101152.38;6309912;22;19910;-78
2022/04/04 05:01:59;;;;;;;;;;;;;;;16.12;47.16;101141.16;6314798;22;19906;-78
2022/04/04 05:04:26;;;;;;;;;;;;;;;16.12;47.15;101134.22;6283034;22;19914;-80
2022/04/04 05:06:51;;;;;;;;;;;;;;;16.12;47.24;101133.34;6319017;22;19942;-82
2022/04/04 05:09:33;;;;;;;;;;;;;;;16.13;47.25;101138.53;6265018;22;19911;-81
2022/04/04 05:11:58;;;;;;;;;;;;;;;16.13;47.75;101141.13;6286227;22;20232;-80
2022/04/04 05:14:24;;;;;;;;;;;;;;;16.13;47.69;101125.53;6283232;22;19921;-80
2022/04/04 05:16:49;;;;;;;;;;;;;;;16.14;47.67;101127.28;6285028;22;20217;-80
2022/04/04 05:19:33;;;;;;;;;;;;;;;16.16;47.97;101137.69;6296824;22;19918;-84
2022/04/04 05:21:59;;;;;;;;;;;;;;;16.14;47.88;101111.72;6282964;22;20286;-82
2022/04/04 05:24:29;;;;;;;;;;;;;;;16.32;48.01;101115.19;6311511;22;19990;-80
2022/04/04 05:26:56;;;;;;;;;;;;;;;16.42;47.89;101111.72;6311687;22;19911;-80
2022/04/04 05:29:22;;;;;;;;;;;;;;;16.46;47.75;101108.25;6297174;22;19925;-80
2022/04/04 05:31:47;;;;;;;;;;;;;;;16.48;47.58;101105.66;6286236;22;20352;-78
2022/04/04 05:34:12;;;;;;;;;;;;;;;16.50;47.83;101099.59;6295078;22;19906;-80
2022/04/04 05:36:38;;;;;;;;;;;;;;;16.53;47.82;101093.53;6284902;22;19914;-80
2022/04/04 05:39:04;;;;;;;;;;;;;;;16.54;47.87;101084.88;6310387;22;20375;-80
2022/04/04 05:41:29;;;;;;;;;;;;;;;16.59;48.14;101083.13;6282314;22;19929;-81
2022/04/04 05:43:55;;;;;;;;;;;;;;;16.61;47.92;101083.97;6282387;22;19907;-80
2022/04/04 05:46:20;;;;;;;;;;;;;;;16.61;48.14;101071.00;6282409;22;19921;-81
2022/04/04 05:48:46;;;;;;;;;;;;;;;16.65;47.72;101062.31;6282177;22;19903;-80
2022/04/04 05:51:12;;;;;;;;;;;;;;;16.65;48.42;101054.53;6281742;22;19917;-80
2022/04/04 05:53:37;;;;;;;;;;;;;;;16.67;48.40;101061.44;6282530;22;20235;-80
2022/04/04 05:56:03;;;;;;;;;;;;;;;16.68;48.39;101054.53;6281955;22;19953;-80
2022/04/04 05:58:28;;;;;;;;;;;;;;;16.69;48.21;101053.66;6282264;22;19956;-81
2022/04/04 06:00:54;;;;;;;;;;;;;;;16.67;48.31;101040.66;6282456;22;19930;-80
2022/04/04 06:03:19;;;;;;;;;;;;;;;16.66;48.34;101051.09;6255878;22;19910;-80
2022/04/04 06:05:46;;;;;;;;;;;;;;;16.66;48.31;101045.88;6282237;22;19974;-80
2022/04/04 06:08:11;;;;;;;;;;;;;;;16.64;48.22;101043.28;6309378;22;19911;-80
2022/04/04 06:10:37;;;;;;;;;;;;;;;16.62;48.31;101029.44;6281957;22;19914;-80
2022/04/04 06:13:02;;;;;;;;;;;;;;;16.61;48.44;101022.50;6282090;22;19939;-80
2022/04/04 06:15:27;;;;;;;;;;;;;;;16.61;48.14;101026.81;6281718;22;19919;-80
2022/04/04 06:17:52;;;;;;;;;;;;;;;16.58;48.30;101017.31;6256152;22;19938;-80
2022/04/04 06:20:19;;;;;;;;;;;;;;;16.59;48.38;101037.25;6308898;22;20288;-80
2022/04/04 06:22:45;;;;;;;;;;;;;;;16.59;48.23;101020.75;6282102;22;19907;-80
2022/04/04 06:25:14;;;;;;;;;;;;;;;16.60;48.14;101014.72;6281905;22;20191;-80
2022/04/04 06:27:41;;;;;;;;;;;;;;;16.60;48.09;101006.91;6283087;22;19989;-80
2022/04/04 06:30:07;;;;;;;;;;;;;;;16.60;48.15;100997.38;6282217;22;20000;-81
2022/04/04 06:32:33;;;;;;;;;;;;;;;16.59;48.10;101003.47;6308833;22;19985;-80
2022/04/04 06:34:58;;;;;;;;;;;;;;;16.57;47.88;101002.59;6282901;22;20389;-80
2022/04/04 06:37:24;;;;;;;;;;;;;;;16.56;47.87;100998.25;6259074;22;19960;-80
2022/04/04 06:39:49;;;;;;;;;;;;;;;16.58;48.05;100988.72;6284541;22;19911;-80
2022/04/04 06:42:15;;;;;;;;;;;;;;;16.57;48.18;100986.13;6283804;22;19998;-81
2022/04/04 06:44:42;;;;;;;;;;;;;;;16.58;48.17;100991.31;6285435;22;19914;-82
2022/04/04 06:47:07;;;;;;;;;;;;;;;16.58;48.01;100977.47;6286160;22;19903;-80
2022/04/04 06:49:33;;;;;;;;;;;;;;;16.56;48.03;100969.69;6281851;22;19986;-80
2022/04/04 06:51:58;;;;;;;;;;;;;;;16.58;48.22;100973.13;6309096;22;19960;-79
2022/04/04 06:54:23;;;;;;;;;;;;;;;16.59;48.17;100979.19;6255975;22;19915;-79
2022/04/04 06:56:49;;;;;;;;;;;;;;;16.58;48.08;100983.53;6282131;22;19907;-80
2022/04/04 06:59:16;;;;;;;;;;;;;;;16.60;48.30;100961.00;6281689;22;19907;-80
2022/04/04 07:01:42;;;;;;;;;;;;;;;16.59;48.13;100953.22;6281546;22;20220;-80
2022/04/04 07:04:08;;;;;;;;;;;;;;;16.59;47.70;100958.41;6282244;22;19910;-79
2022/04/04 07:06:33;;;;;;;;;;;;;;;16.60;47.89;100957.56;6282151;22;20366;-80
2022/04/04 07:08:59;;;;;;;;;;;;;;;16.58;48.09;100952.34;6256891;22;20276;-79
2022/04/04 07:11:24;;;;;;;;;;;;;;;16.56;48.02;100943.69;6282327;22;20235;-79
2022/04/04 07:13:49;;;;;;;;;;;;;;;16.57;48.09;100939.38;6281874;22;20232;-79
2022/04/04 07:16:18;;;;;;;;;;;;;;;16.56;48.10;100930.72;6281727;22;19993;-80
2022/04/04 07:18:43;;;;;;;;;;;;;;;16.58;47.68;100925.53;6282041;22;19917;-80
2022/04/04 07:21:09;;;;;;;;;;;;;;;16.59;48.05;100920.31;6282278;22;19943;-80
2022/04/04 07:23:38;;;;;;;;;;;;;;;16.57;47.96;100918.56;6299997;22;19911;-87
2022/04/04 07:26:04;;;;;;;;;;;;;;;16.56;47.78;100922.91;6304696;22;19907;-86
2022/04/04 07:28:29;;;;;;;;;;;;;;;16.55;47.73;100915.13;6332088;22;19934;-85
2022/04/04 07:30:55;;;;;;;;;;;;;;;16.56;47.82;100909.94;6306984;22;19915;-85
2022/04/04 07:36:42;;;;;;;;;;;;;;;16.60;47.72;100901.25;6332167;22;19906;-86
2022/04/04 07:39:11;;;;;;;;;;;;;;;16.61;47.56;100895.22;6304851;22;19907;-85
2022/04/04 07:41:36;;;;;;;;;;;;;;;16.61;47.65;100895.22;6304769;22;19984;-84
2022/04/04 07:44:24;;;;;;;;;;;;;;;16.61;47.53;100889.13;6305073;22;19949;-85
2022/04/04 07:56:19;;;;;;;;;;;;;;;16.58;47.59;100900.41;6272312;23;19897;-84
2022/04/04 07:59:22;;;;;;;;;;;;;;;16.57;47.69;100890.00;6266421;23;19914;-86
2022/04/04 08:07:48;;;;;;;;;;;;;;;16.59;47.33;100875.28;6270323;22;20011;-85
2022/04/04 08:10:39;;;;;;;;;;;;;;;16.60;47.63;100869.22;6268395;23;19908;-86
2022/04/04 08:13:05;;;;;;;;;;;;;;;16.61;47.40;100861.44;6268433;22;19911;-85
2022/04/04 16:03:45;;;;;;;;;;;;;;;16.82;48.88;100521.75;6332413;22;19934;-85
2022/04/04 16:06:36;;;;;;;;;;;;;;;16.81;48.70;100523.50;6330827;22;19952;-84
2022/04/04 16:09:44;;;;;;;;;;;;;;;16.81;48.84;100517.41;6272025;23;19892;-84
2022/04/04 16:12:19;;;;;;;;;;;;;;;16.80;48.86;100521.75;6186882;23;19893;-85
2022/04/04 16:18:09;;;;;;;;;;;;;;;16.78;48.74;100515.69;6212133;23;19900;-85
2022/04/04 16:20:41;;;;;;;;;;;;;;;16.80;48.91;100518.31;6144696;23;19939;-86
